aviador You're here:

LEVC Decoded Metar

VALENCIA in SPAIN
Report Time2017-08-21 08:00:00
UTC Time2017-08-21 08:19:47
Flight Rules vfr VFR
WindVRB at 01 kt
Visibility9999 m
Phenomena:N/A
Clouds:Scattered 025 Hf
Expected CloudBase > 2,400 ft AGL from Temp-Dew spread
CeilingNone
Temp27°C (ISA +12)
Dew Point21°C (70% RH)
Heat Index28.9°C
QNH1020 hPa
Density Alt1,726 ft
Elevation203 ft
Report Wrong Elevation
Raw Report
LEVC 210800Z VRB01KT 9999 SCT025 27/21 Q1020 NOSIG=

Extra information for LEVC:More info

Metar Taf Metar & Taf Last 4 Metars F.Rules Stats Wind Profile Meteogram Temp Stats Airport Information Weather charts Add Link Nearby VenuesMetar ALERT Operation Metar Decoded Social comments

Webcam Valencia